sensor_id;sensor_type;location;lat;lon;timestamp;temperature;humidity
4602;DHT22;2313;48.552;9.370;2024-01-16T00:01:20;-0.80;99.90
4602;DHT22;2313;48.552;9.370;2024-01-16T00:03:46;-0.80;99.90
4602;DHT22;2313;48.552;9.370;2024-01-16T00:06:11;-0.70;99.90
4602;DHT22;2313;48.552;9.370;2024-01-16T00:08:37;-0.80;99.90
4602;DHT22;2313;48.552;9.370;2024-01-16T00:11:03;-0.70;99.90
4602;DHT22;2313;48.552;9.370;2024-01-16T00:13:29;-0.70;99.90
4602;DHT22;2313;48.552;9.370;2024-01-16T00:15:54;-0.70;99.90
4602;DHT22;2313;48.552;9.370;2024-01-16T00:18:22;-0.80;99.90
4602;DHT22;2313;48.552;9.370;2024-01-16T00:20:48;-0.80;99.90
4602;DHT22;2313;48.552;9.370;2024-01-16T00:23:13;-0.80;99.90
4602;DHT22;2313;48.552;9.370;2024-01-16T00:25:39;-0.80;99.90
4602;DHT22;2313;48.552;9.370;2024-01-16T00:28:05;-0.80;99.90
4602;DHT22;2313;48.552;9.370;2024-01-16T00:30:30;-0.90;99.90
4602;DHT22;2313;48.552;9.370;2024-01-16T00:32:56;-0.90;99.90
4602;DHT22;2313;48.552;9.370;2024-01-16T00:35:22;-0.90;99.90
4602;DHT22;2313;48.552;9.370;2024-01-16T00:37:47;-0.90;99.90
4602;DHT22;2313;48.552;9.370;2024-01-16T00:40:13;-0.80;99.90
4602;DHT22;2313;48.552;9.370;2024-01-16T00:42:38;-0.80;99.90
4602;DHT22;2313;48.552;9.370;2024-01-16T00:45:04;-0.90;99.90
4602;DHT22;2313;48.552;9.370;2024-01-16T00:47:30;-0.90;99.90
4602;DHT22;2313;48.552;9.370;2024-01-16T00:49:55;-0.90;99.90
4602;DHT22;2313;48.552;9.370;2024-01-16T00:52:21;-0.90;99.90
4602;DHT22;2313;48.552;9.370;2024-01-16T00:54:47;-0.90;99.90
4602;DHT22;2313;48.552;9.370;2024-01-16T00:57:13;-0.90;99.90
4602;DHT22;2313;48.552;9.370;2024-01-16T00:59:40;-0.90;99.90
4602;DHT22;2313;48.552;9.370;2024-01-16T01:02:06;-0.90;99.90
4602;DHT22;2313;48.552;9.370;2024-01-16T01:04:33;-0.90;99.90
4602;DHT22;2313;48.552;9.370;2024-01-16T01:06:58;-0.90;99.90
4602;DHT22;2313;48.552;9.370;2024-01-16T01:09:24;-0.80;99.90
4602;DHT22;2313;48.552;9.370;2024-01-16T01:11:49;-0.80;99.90
4602;DHT22;2313;48.552;9.370;2024-01-16T01:14:15;-0.90;99.90
4602;DHT22;2313;48.552;9.370;2024-01-16T01:16:41;-0.90;99.90
4602;DHT22;2313;48.552;9.370;2024-01-16T01:19:06;-1.00;99.90
4602;DHT22;2313;48.552;9.370;2024-01-16T01:21:32;-1.00;99.90
4602;DHT22;2313;48.552;9.370;2024-01-16T01:23:58;-1.10;99.90
4602;DHT22;2313;48.552;9.370;2024-01-16T01:26:23;-1.10;99.90
4602;DHT22;2313;48.552;9.370;2024-01-16T01:28:49;-1.10;99.90
4602;DHT22;2313;48.552;9.370;2024-01-16T01:31:14;-1.10;99.90
4602;DHT22;2313;48.552;9.370;2024-01-16T01:33:40;-1.10;99.90
4602;DHT22;2313;48.552;9.370;2024-01-16T01:36:06;-1.10;99.90
4602;DHT22;2313;48.552;9.370;2024-01-16T01:38:31;-1.10;99.90
4602;DHT22;2313;48.552;9.370;2024-01-16T01:40:57;-1.10;99.90
4602;DHT22;2313;48.552;9.370;2024-01-16T01:43:24;-1.10;99.90
4602;DHT22;2313;48.552;9.370;2024-01-16T01:46:27;-1.10;99.90
4602;DHT22;2313;48.552;9.370;2024-01-16T01:48:53;-1.10;99.90
4602;DHT22;2313;48.552;9.370;2024-01-16T01:51:19;-1.10;99.90
4602;DHT22;2313;48.552;9.370;2024-01-16T01:53:47;-1.10;99.90
4602;DHT22;2313;48.552;9.370;2024-01-16T01:56:17;-1.10;99.90
4602;DHT22;2313;48.552;9.370;2024-01-16T01:58:52;-1.00;99.90
4602;DHT22;2313;48.552;9.370;2024-01-16T02:01:19;-1.00;99.90
4602;DHT22;2313;48.552;9.370;2024-01-16T02:03:46;-1.00;99.90
4602;DHT22;2313;48.552;9.370;2024-01-16T02:06:13;-1.10;99.90
4602;DHT22;2313;48.552;9.370;2024-01-16T02:08:42;-1.00;99.90
4602;DHT22;2313;48.552;9.370;2024-01-16T02:11:08;-1.10;99.90
4602;DHT22;2313;48.552;9.370;2024-01-16T02:13:35;-1.00;99.90
4602;DHT22;2313;48.552;9.370;2024-01-16T02:16:01;-1.00;99.90
4602;DHT22;2313;48.552;9.370;2024-01-16T02:18:26;-1.10;99.90
4602;DHT22;2313;48.552;9.370;2024-01-16T02:20:53;-1.10;99.90
4602;DHT22;2313;48.552;9.370;2024-01-16T02:23:26;-1.10;99.90
4602;DHT22;2313;48.552;9.370;2024-01-16T02:25:52;-1.10;99.90
4602;DHT22;2313;48.552;9.370;2024-01-16T02:28:18;-1.00;99.90
4602;DHT22;2313;48.552;9.370;2024-01-16T02:30:44;-1.00;99.90
4602;DHT22;2313;48.552;9.370;2024-01-16T02:33:09;-1.00;99.90
4602;DHT22;2313;48.552;9.370;2024-01-16T02:35:35;-1.10;99.90
4602;DHT22;2313;48.552;9.370;2024-01-16T02:38:00;-1.10;99.90
4602;DHT22;2313;48.552;9.370;2024-01-16T02:40:26;-1.10;99.90
4602;DHT22;2313;48.552;9.370;2024-01-16T02:42:52;-1.00;99.90
4602;DHT22;2313;48.552;9.370;2024-01-16T02:45:17;-1.00;99.90
4602;DHT22;2313;48.552;9.370;2024-01-16T02:47:43;-1.00;99.90
4602;DHT22;2313;48.552;9.370;2024-01-16T02:50:09;-0.80;99.90
4602;DHT22;2313;48.552;9.370;2024-01-16T02:52:37;-1.00;99.90
4602;DHT22;2313;48.552;9.370;2024-01-16T02:55:03;-0.90;99.90
4602;DHT22;2313;48.552;9.370;2024-01-16T02:57:30;-1.00;99.90
4602;DHT22;2313;48.552;9.370;2024-01-16T02:59:56;-1.00;99.90
4602;DHT22;2313;48.552;9.370;2024-01-16T03:02:21;-1.00;99.90
4602;DHT22;2313;48.552;9.370;2024-01-16T03:04:49;-0.90;99.90
4602;DHT22;2313;48.552;9.370;2024-01-16T03:07:14;-0.90;99.90
4602;DHT22;2313;48.552;9.370;2024-01-16T03:09:40;-0.80;99.90
4602;DHT22;2313;48.552;9.370;2024-01-16T03:12:06;-0.80;99.90
4602;DHT22;2313;48.552;9.370;2024-01-16T03:14:31;-0.80;99.90
4602;DHT22;2313;48.552;9.370;2024-01-16T03:17:01;-0.80;99.90
4602;DHT22;2313;48.552;9.370;2024-01-16T03:19:27;-0.80;99.90
4602;DHT22;2313;48.552;9.370;2024-01-16T03:21:53;-0.90;99.90
4602;DHT22;2313;48.552;9.370;2024-01-16T03:24:19;-0.90;99.90
4602;DHT22;2313;48.552;9.370;2024-01-16T03:26:45;-1.00;99.90
4602;DHT22;2313;48.552;9.370;2024-01-16T03:29:11;-1.00;99.90
4602;DHT22;2313;48.552;9.370;2024-01-16T03:31:36;-1.10;99.90
4602;DHT22;2313;48.552;9.370;2024-01-16T03:34:02;-1.00;99.90
4602;DHT22;2313;48.552;9.370;2024-01-16T03:36:28;-1.10;99.90
4602;DHT22;2313;48.552;9.370;2024-01-16T03:38:54;-1.10;99.90
4602;DHT22;2313;48.552;9.370;2024-01-16T03:41:19;-1.10;99.90
4602;DHT22;2313;48.552;9.370;2024-01-16T03:43:45;-1.10;99.90
4602;DHT22;2313;48.552;9.370;2024-01-16T03:46:11;-1.20;99.90
4602;DHT22;2313;48.552;9.370;2024-01-16T03:48:37;-1.20;99.90
4602;DHT22;2313;48.552;9.370;2024-01-16T03:51:02;-1.30;99.90
4602;DHT22;2313;48.552;9.370;2024-01-16T03:53:28;-1.40;99.90
4602;DHT22;2313;48.552;9.370;2024-01-16T03:55:54;-1.40;99.90
4602;DHT22;2313;48.552;9.370;2024-01-16T03:58:19;-1.50;99.90
4602;DHT22;2313;48.552;9.370;2024-01-16T04:00:45;-1.50;99.90
4602;DHT22;2313;48.552;9.370;2024-01-16T04:03:11;-1.60;99.90
4602;DHT22;2313;48.552;9.370;2024-01-16T04:05:38;-1.60;99.90
4602;DHT22;2313;48.552;9.370;2024-01-16T04:08:04;-1.60;99.90
4602;DHT22;2313;48.552;9.370;2024-01-16T04:10:29;-1.70;99.90
4602;DHT22;2313;48.552;9.370;2024-01-16T04:12:55;-1.70;99.90
4602;DHT22;2313;48.552;9.370;2024-01-16T04:15:21;-1.70;99.90
4602;DHT22;2313;48.552;9.370;2024-01-16T04:17:47;-1.80;99.90
4602;DHT22;2313;48.552;9.370;2024-01-16T04:20:13;-1.80;99.90
4602;DHT22;2313;48.552;9.370;2024-01-16T04:22:39;-1.80;99.90
4602;DHT22;2313;48.552;9.370;2024-01-16T04:25:05;-1.80;99.90
4602;DHT22;2313;48.552;9.370;2024-01-16T04:27:31;-1.90;99.90
4602;DHT22;2313;48.552;9.370;2024-01-16T04:29:57;-1.90;99.90
4602;DHT22;2313;48.552;9.370;2024-01-16T04:32:23;-1.90;99.90
4602;DHT22;2313;48.552;9.370;2024-01-16T04:34:48;-1.90;99.90
4602;DHT22;2313;48.552;9.370;2024-01-16T04:37:14;-2.00;99.90
4602;DHT22;2313;48.552;9.370;2024-01-16T04:39:39;-2.00;99.90
4602;DHT22;2313;48.552;9.370;2024-01-16T04:42:05;-2.00;99.90
4602;DHT22;2313;48.552;9.370;2024-01-16T04:44:30;-2.00;99.90
4602;DHT22;2313;48.552;9.370;2024-01-16T04:46:56;-2.00;99.90
4602;DHT22;2313;48.552;9.370;2024-01-16T04:49:21;-2.00;99.90
4602;DHT22;2313;48.552;9.370;2024-01-16T04:51:47;-2.00;99.90
4602;DHT22;2313;48.552;9.370;2024-01-16T04:54:13;-2.00;99.90
4602;DHT22;2313;48.552;9.370;2024-01-16T04:56:38;-2.00;99.90
4602;DHT22;2313;48.552;9.370;2024-01-16T04:59:04;-2.00;99.90
4602;DHT22;2313;48.552;9.370;2024-01-16T05:01:29;-2.00;99.90
4602;DHT22;2313;48.552;9.370;2024-01-16T05:03:55;-2.00;99.90
4602;DHT22;2313;48.552;9.370;2024-01-16T05:06:21;-2.00;99.90
4602;DHT22;2313;48.552;9.370;2024-01-16T05:08:46;-2.00;99.90
4602;DHT22;2313;48.552;9.370;2024-01-16T05:11:12;-2.00;99.90
4602;DHT22;2313;48.552;9.370;2024-01-16T05:13:38;-2.00;99.90
4602;DHT22;2313;48.552;9.370;2024-01-16T05:16:03;-2.00;99.90
4602;DHT22;2313;48.552;9.370;2024-01-16T05:18:29;-2.00;99.90
4602;DHT22;2313;48.552;9.370;2024-01-16T05:20:55;-2.10;99.90
4602;DHT22;2313;48.552;9.370;2024-01-16T05:23:24;-2.00;99.90
4602;DHT22;2313;48.552;9.370;2024-01-16T05:25:50;-2.10;99.90
4602;DHT22;2313;48.552;9.370;2024-01-16T05:28:16;-2.10;99.90
4602;DHT22;2313;48.552;9.370;2024-01-16T05:30:41;-2.10;99.90
4602;DHT22;2313;48.552;9.370;2024-01-16T05:33:08;-2.10;99.90
4602;DHT22;2313;48.552;9.370;2024-01-16T05:35:34;-2.20;99.90
4602;DHT22;2313;48.552;9.370;2024-01-16T05:37:59;-2.20;99.90
4602;DHT22;2313;48.552;9.370;2024-01-16T05:40:25;-2.20;99.90
4602;DHT22;2313;48.552;9.370;2024-01-16T05:42:51;-2.20;99.90
4602;DHT22;2313;48.552;9.370;2024-01-16T05:45:17;-2.20;99.90
4602;DHT22;2313;48.552;9.370;2024-01-16T05:47:43;-2.10;99.90
4602;DHT22;2313;48.552;9.370;2024-01-16T05:50:09;-2.10;99.90
4602;DHT22;2313;48.552;9.370;2024-01-16T05:52:35;-2.10;99.90
4602;DHT22;2313;48.552;9.370;2024-01-16T05:55:01;-2.10;99.90
4602;DHT22;2313;48.552;9.370;2024-01-16T05:57:30;-2.10;99.90
4602;DHT22;2313;48.552;9.370;2024-01-16T05:59:59;-2.20;99.90
4602;DHT22;2313;48.552;9.370;2024-01-16T06:02:28;-2.10;99.90
4602;DHT22;2313;48.552;9.370;2024-01-16T06:04:54;-2.10;99.90
4602;DHT22;2313;48.552;9.370;2024-01-16T06:07:19;-2.20;99.90
4602;DHT22;2313;48.552;9.370;2024-01-16T06:09:45;-2.20;99.90
4602;DHT22;2313;48.552;9.370;2024-01-16T06:12:11;-2.20;99.90
4602;DHT22;2313;48.552;9.370;2024-01-16T06:14:38;-2.20;99.90
4602;DHT22;2313;48.552;9.370;2024-01-16T06:17:03;-2.30;99.90
4602;DHT22;2313;48.552;9.370;2024-01-16T06:19:31;-2.30;99.90
4602;DHT22;2313;48.552;9.370;2024-01-16T06:21:57;-2.30;99.90
4602;DHT22;2313;48.552;9.370;2024-01-16T06:24:23;-2.30;99.90
4602;DHT22;2313;48.552;9.370;2024-01-16T06:26:49;-2.30;99.90
4602;DHT22;2313;48.552;9.370;2024-01-16T06:29:14;-2.20;99.90
4602;DHT22;2313;48.552;9.370;2024-01-16T06:31:40;-2.20;99.90
4602;DHT22;2313;48.552;9.370;2024-01-16T06:34:06;-2.20;99.90
4602;DHT22;2313;48.552;9.370;2024-01-16T06:36:31;-2.20;99.90
4602;DHT22;2313;48.552;9.370;2024-01-16T06:38:57;-2.30;99.90
4602;DHT22;2313;48.552;9.370;2024-01-16T06:41:23;-2.30;99.90
4602;DHT22;2313;48.552;9.370;2024-01-16T06:43:49;-2.20;99.90
4602;DHT22;2313;48.552;9.370;2024-01-16T06:46:14;-2.20;99.90
4602;DHT22;2313;48.552;9.370;2024-01-16T06:48:40;-2.30;99.90
4602;DHT22;2313;48.552;9.370;2024-01-16T06:51:05;-2.30;99.90
4602;DHT22;2313;48.552;9.370;2024-01-16T06:53:33;-2.40;99.90
4602;DHT22;2313;48.552;9.370;2024-01-16T06:55:58;-2.40;99.90
4602;DHT22;2313;48.552;9.370;2024-01-16T06:58:24;-2.30;99.90
4602;DHT22;2313;48.552;9.370;2024-01-16T07:00:49;-2.40;99.90
4602;DHT22;2313;48.552;9.370;2024-01-16T07:03:15;-2.40;99.90
4602;DHT22;2313;48.552;9.370;2024-01-16T07:05:42;-2.40;99.90
4602;DHT22;2313;48.552;9.370;2024-01-16T07:08:08;-2.30;99.90
4602;DHT22;2313;48.552;9.370;2024-01-16T07:10:34;-2.30;99.90
4602;DHT22;2313;48.552;9.370;2024-01-16T07:13:01;-2.30;99.90
4602;DHT22;2313;48.552;9.370;2024-01-16T07:15:27;-2.30;99.90
4602;DHT22;2313;48.552;9.370;2024-01-16T07:17:53;-2.30;99.90
4602;DHT22;2313;48.552;9.370;2024-01-16T07:20:19;-2.40;99.90
4602;DHT22;2313;48.552;9.370;2024-01-16T07:22:44;-2.40;99.90
4602;DHT22;2313;48.552;9.370;2024-01-16T07:25:11;-2.30;99.90
4602;DHT22;2313;48.552;9.370;2024-01-16T07:27:36;-2.30;99.90
4602;DHT22;2313;48.552;9.370;2024-01-16T07:30:04;-2.20;99.90
4602;DHT22;2313;48.552;9.370;2024-01-16T07:32:31;-2.30;99.90
4602;DHT22;2313;48.552;9.370;2024-01-16T07:34:57;-2.30;99.90
4602;DHT22;2313;48.552;9.370;2024-01-16T07:37:23;-2.30;99.90
4602;DHT22;2313;48.552;9.370;2024-01-16T07:39:48;-2.30;99.90
4602;DHT22;2313;48.552;9.370;2024-01-16T07:42:14;-2.30;99.90
4602;DHT22;2313;48.552;9.370;2024-01-16T07:44:40;-2.40;99.90
4602;DHT22;2313;48.552;9.370;2024-01-16T07:47:05;-2.40;99.90
4602;DHT22;2313;48.552;9.370;2024-01-16T07:49:31;-2.40;99.90
4602;DHT22;2313;48.552;9.370;2024-01-16T07:51:56;-2.40;99.90
4602;DHT22;2313;48.552;9.370;2024-01-16T07:54:22;-2.30;99.90
4602;DHT22;2313;48.552;9.370;2024-01-16T07:56:48;-2.30;99.90
4602;DHT22;2313;48.552;9.370;2024-01-16T07:59:13;-2.20;99.90
4602;DHT22;2313;48.552;9.370;2024-01-16T08:01:39;-2.20;99.90
4602;DHT22;2313;48.552;9.370;2024-01-16T08:04:05;-2.30;99.90
4602;DHT22;2313;48.552;9.370;2024-01-16T08:06:31;-2.40;99.90
4602;DHT22;2313;48.552;9.370;2024-01-16T08:08:56;-2.20;99.90
4602;DHT22;2313;48.552;9.370;2024-01-16T08:11:22;-2.10;99.90
4602;DHT22;2313;48.552;9.370;2024-01-16T08:13:47;-2.00;99.90
4602;DHT22;2313;48.552;9.370;2024-01-16T08:16:13;-2.00;99.90
4602;DHT22;2313;48.552;9.370;2024-01-16T08:18:38;-2.00;99.90
4602;DHT22;2313;48.552;9.370;2024-01-16T08:21:04;-2.00;99.90
4602;DHT22;2313;48.552;9.370;2024-01-16T08:23:30;-2.00;99.90
4602;DHT22;2313;48.552;9.370;2024-01-16T08:25:55;-2.00;99.90
4602;DHT22;2313;48.552;9.370;2024-01-16T08:28:21;-1.90;99.90
4602;DHT22;2313;48.552;9.370;2024-01-16T08:30:49;-1.90;99.90
4602;DHT22;2313;48.552;9.370;2024-01-16T08:33:15;-1.80;99.90
4602;DHT22;2313;48.552;9.370;2024-01-16T08:35:40;-1.80;99.90
4602;DHT22;2313;48.552;9.370;2024-01-16T08:38:06;-1.70;99.90
4602;DHT22;2313;48.552;9.370;2024-01-16T08:40:32;-1.50;99.90
4602;DHT22;2313;48.552;9.370;2024-01-16T08:42:57;-1.50;99.90
4602;DHT22;2313;48.552;9.370;2024-01-16T08:45:23;-1.60;99.90
4602;DHT22;2313;48.552;9.370;2024-01-16T08:47:52;-1.30;99.90
4602;DHT22;2313;48.552;9.370;2024-01-16T08:50:18;-1.10;99.90
4602;DHT22;2313;48.552;9.370;2024-01-16T08:52:44;-1.00;99.90
4602;DHT22;2313;48.552;9.370;2024-01-16T08:55:09;-1.10;99.90
4602;DHT22;2313;48.552;9.370;2024-01-16T08:57:36;-1.10;99.90
4602;DHT22;2313;48.552;9.370;2024-01-16T09:00:04;-0.90;99.90
4602;DHT22;2313;48.552;9.370;2024-01-16T09:02:29;-0.80;99.90
4602;DHT22;2313;48.552;9.370;2024-01-16T09:04:56;-0.70;99.90
4602;DHT22;2313;48.552;9.370;2024-01-16T09:07:22;-0.70;99.90
4602;DHT22;2313;48.552;9.370;2024-01-16T09:09:48;-0.70;99.90
4602;DHT22;2313;48.552;9.370;2024-01-16T09:12:14;-0.60;99.90
4602;DHT22;2313;48.552;9.370;2024-01-16T09:14:40;-0.30;99.90
4602;DHT22;2313;48.552;9.370;2024-01-16T09:17:06;0.20;99.90
4602;DHT22;2313;48.552;9.370;2024-01-16T09:19:32;0.70;99.90
4602;DHT22;2313;48.552;9.370;2024-01-16T09:21:58;0.90;99.90
4602;DHT22;2313;48.552;9.370;2024-01-16T09:24:23;0.90;99.90
4602;DHT22;2313;48.552;9.370;2024-01-16T09:26:49;0.90;99.90
4602;DHT22;2313;48.552;9.370;2024-01-16T09:29:14;1.20;99.90
4602;DHT22;2313;48.552;9.370;2024-01-16T09:31:40;1.30;99.90
4602;DHT22;2313;48.552;9.370;2024-01-16T09:34:06;1.40;99.90
4602;DHT22;2313;48.552;9.370;2024-01-16T09:36:32;1.60;99.90
4602;DHT22;2313;48.552;9.370;2024-01-16T09:39:01;1.80;99.90
4602;DHT22;2313;48.552;9.370;2024-01-16T09:41:28;2.10;99.90
4602;DHT22;2313;48.552;9.370;2024-01-16T09:43:54;2.30;99.90
4602;DHT22;2313;48.552;9.370;2024-01-16T09:46:22;2.50;99.90
4602;DHT22;2313;48.552;9.370;2024-01-16T09:48:50;3.10;99.90
4602;DHT22;2313;48.552;9.370;2024-01-16T09:51:19;3.40;98.80
4602;DHT22;2313;48.552;9.370;2024-01-16T09:53:45;3.80;98.20
4602;DHT22;2313;48.552;9.370;2024-01-16T09:56:20;4.30;97.20
4602;DHT22;2313;48.552;9.370;2024-01-16T09:58:48;4.60;94.90
4602;DHT22;2313;48.552;9.370;2024-01-16T10:01:15;4.90;93.60
4602;DHT22;2313;48.552;9.370;2024-01-16T10:03:44;5.60;95.80
4602;DHT22;2313;48.552;9.370;2024-01-16T10:06:11;6.40;95.70
4602;DHT22;2313;48.552;9.370;2024-01-16T10:08:37;7.40;94.50
4602;DHT22;2313;48.552;9.370;2024-01-16T10:11:03;8.20;90.90
4602;DHT22;2313;48.552;9.370;2024-01-16T10:13:29;8.40;90.10
4602;DHT22;2313;48.552;9.370;2024-01-16T10:15:55;9.00;88.90
4602;DHT22;2313;48.552;9.370;2024-01-16T10:18:25;8.60;84.00
4602;DHT22;2313;48.552;9.370;2024-01-16T10:20:51;7.80;85.00
4602;DHT22;2313;48.552;9.370;2024-01-16T10:23:28;7.70;86.70
4602;DHT22;2313;48.552;9.370;2024-01-16T10:26:11;7.90;87.50
4602;DHT22;2313;48.552;9.370;2024-01-16T10:28:39;8.30;85.70
4602;DHT22;2313;48.552;9.370;2024-01-16T10:31:06;8.80;84.20
4602;DHT22;2313;48.552;9.370;2024-01-16T10:33:32;9.40;84.40
4602;DHT22;2313;48.552;9.370;2024-01-16T10:36:16;10.10;81.80
4602;DHT22;2313;48.552;9.370;2024-01-16T10:38:44;11.50;77.60
4602;DHT22;2313;48.552;9.370;2024-01-16T10:41:17;12.50;75.30
4602;DHT22;2313;48.552;9.370;2024-01-16T10:43:43;13.40;70.10
4602;DHT22;2313;48.552;9.370;2024-01-16T10:46:14;13.40;64.60
4602;DHT22;2313;48.552;9.370;2024-01-16T10:48:45;13.30;64.40
4602;DHT22;2313;48.552;9.370;2024-01-16T10:51:23;13.50;62.50
4602;DHT22;2313;48.552;9.370;2024-01-16T10:53:58;13.20;61.10
4602;DHT22;2313;48.552;9.370;2024-01-16T10:56:24;13.20;60.20
4602;DHT22;2313;48.552;9.370;2024-01-16T11:01:44;11.10;59.20
4602;DHT22;2313;48.552;9.370;2024-01-16T11:04:12;10.80;60.90
4602;DHT22;2313;48.552;9.370;2024-01-16T11:06:39;10.60;61.30
4602;DHT22;2313;48.552;9.370;2024-01-16T11:09:05;10.70;63.00
4602;DHT22;2313;48.552;9.370;2024-01-16T11:11:33;11.30;64.00
4602;DHT22;2313;48.552;9.370;2024-01-16T11:14:02;11.70;62.80
4602;DHT22;2313;48.552;9.370;2024-01-16T11:16:29;12.50;62.00
4602;DHT22;2313;48.552;9.370;2024-01-16T11:18:57;12.50;59.50
4602;DHT22;2313;48.552;9.370;2024-01-16T11:21:23;11.90;58.10
4602;DHT22;2313;48.552;9.370;2024-01-16T11:23:49;11.80;60.60
4602;DHT22;2313;48.552;9.370;2024-01-16T11:26:33;11.10;58.60
4602;DHT22;2313;48.552;9.370;2024-01-16T11:31:54;10.30;60.90
4602;DHT22;2313;48.552;9.370;2024-01-16T11:37:15;10.80;62.00
4602;DHT22;2313;48.552;9.370;2024-01-16T11:39:47;10.90;59.90
4602;DHT22;2313;48.552;9.370;2024-01-16T11:42:25;10.60;61.00
4602;DHT22;2313;48.552;9.370;2024-01-16T11:44:52;10.60;60.90
4602;DHT22;2313;48.552;9.370;2024-01-16T11:47:20;10.80;60.40
4602;DHT22;2313;48.552;9.370;2024-01-16T11:49:46;11.10;58.90
4602;DHT22;2313;48.552;9.370;2024-01-16T11:52:13;11.30;59.00
4602;DHT22;2313;48.552;9.370;2024-01-16T11:54:42;11.50;58.00
4602;DHT22;2313;48.552;9.370;2024-01-16T12:00:02;11.10;56.70
4602;DHT22;2313;48.552;9.370;2024-01-16T12:02:54;10.50;57.50
4602;DHT22;2313;48.552;9.370;2024-01-16T12:05:21;9.90;58.20
4602;DHT22;2313;48.552;9.370;2024-01-16T12:07:51;9.60;59.40
4602;DHT22;2313;48.552;9.370;2024-01-16T12:10:18;9.20;59.00
4602;DHT22;2313;48.552;9.370;2024-01-16T12:12:46;9.00;59.10
4602;DHT22;2313;48.552;9.370;2024-01-16T12:15:16;8.70;60.60
4602;DHT22;2313;48.552;9.370;2024-01-16T12:18:17;8.30;59.80
4602;DHT22;2313;48.552;9.370;2024-01-16T12:20:43;8.10;61.80
4602;DHT22;2313;48.552;9.370;2024-01-16T12:23:09;7.70;62.10
4602;DHT22;2313;48.552;9.370;2024-01-16T12:25:36;7.10;61.60
4602;DHT22;2313;48.552;9.370;2024-01-16T12:28:06;6.50;62.50
4602;DHT22;2313;48.552;9.370;2024-01-16T12:30:34;6.30;66.60
4602;DHT22;2313;48.552;9.370;2024-01-16T12:33:09;5.90;66.00
4602;DHT22;2313;48.552;9.370;2024-01-16T12:35:36;5.70;67.90
4602;DHT22;2313;48.552;9.370;2024-01-16T12:38:02;5.50;68.90
4602;DHT22;2313;48.552;9.370;2024-01-16T12:40:29;5.20;70.00
4602;DHT22;2313;48.552;9.370;2024-01-16T12:42:55;5.10;70.90
4602;DHT22;2313;48.552;9.370;2024-01-16T12:45:21;4.80;70.80
4602;DHT22;2313;48.552;9.370;2024-01-16T12:47:54;4.40;70.50
4602;DHT22;2313;48.552;9.370;2024-01-16T12:50:24;3.90;72.00
4602;DHT22;2313;48.552;9.370;2024-01-16T12:52:59;3.70;73.40
4602;DHT22;2313;48.552;9.370;2024-01-16T12:55:25;3.80;77.80
4602;DHT22;2313;48.552;9.370;2024-01-16T12:58:14;3.90;79.80
4602;DHT22;2313;48.552;9.370;2024-01-16T13:00:42;3.90;80.70
4602;DHT22;2313;48.552;9.370;2024-01-16T13:03:07;4.00;80.20
4602;DHT22;2313;48.552;9.370;2024-01-16T13:05:34;4.00;81.40
4602;DHT22;2313;48.552;9.370;2024-01-16T13:08:03;4.10;81.50
4602;DHT22;2313;48.552;9.370;2024-01-16T13:10:29;4.30;84.30
4602;DHT22;2313;48.552;9.370;2024-01-16T13:13:17;4.40;80.50
4602;DHT22;2313;48.552;9.370;2024-01-16T13:15:44;4.60;82.40
4602;DHT22;2313;48.552;9.370;2024-01-16T13:20:45;5.50;82.10
4602;DHT22;2313;48.552;9.370;2024-01-16T13:23:12;5.60;79.60
4602;DHT22;2313;48.552;9.370;2024-01-16T13:25:39;5.90;79.40
4602;DHT22;2313;48.552;9.370;2024-01-16T13:28:05;6.20;77.60
4602;DHT22;2313;48.552;9.370;2024-01-16T13:30:33;6.30;77.20
4602;DHT22;2313;48.552;9.370;2024-01-16T13:32:58;6.50;76.70
4602;DHT22;2313;48.552;9.370;2024-01-16T13:35:24;6.60;74.50
4602;DHT22;2313;48.552;9.370;2024-01-16T13:37:50;6.80;73.60
4602;DHT22;2313;48.552;9.370;2024-01-16T13:40:16;6.60;72.10
4602;DHT22;2313;48.552;9.370;2024-01-16T13:42:44;6.60;72.80
4602;DHT22;2313;48.552;9.370;2024-01-16T13:45:10;7.10;72.90
4602;DHT22;2313;48.552;9.370;2024-01-16T13:47:38;7.40;73.00
4602;DHT22;2313;48.552;9.370;2024-01-16T13:50:06;7.60;71.60
4602;DHT22;2313;48.552;9.370;2024-01-16T13:52:32;7.80;69.40
4602;DHT22;2313;48.552;9.370;2024-01-16T13:54:57;8.00;70.00
4602;DHT22;2313;48.552;9.370;2024-01-16T13:57:23;8.30;69.40
4602;DHT22;2313;48.552;9.370;2024-01-16T13:59:49;8.20;67.00
4602;DHT22;2313;48.552;9.370;2024-01-16T14:02:16;7.40;68.10
4602;DHT22;2313;48.552;9.370;2024-01-16T14:04:41;6.80;69.50
4602;DHT22;2313;48.552;9.370;2024-01-16T14:07:07;6.00;68.10
4602;DHT22;2313;48.552;9.370;2024-01-16T14:09:34;5.40;70.60
4602;DHT22;2313;48.552;9.370;2024-01-16T14:12:00;4.90;71.40
4602;DHT22;2313;48.552;9.370;2024-01-16T14:14:25;4.60;73.10
4602;DHT22;2313;48.552;9.370;2024-01-16T14:16:51;4.30;76.90
4602;DHT22;2313;48.552;9.370;2024-01-16T14:19:17;4.00;77.70
4602;DHT22;2313;48.552;9.370;2024-01-16T14:21:42;3.70;78.90
4602;DHT22;2313;48.552;9.370;2024-01-16T14:24:08;3.40;80.00
4602;DHT22;2313;48.552;9.370;2024-01-16T14:26:35;3.20;82.50
4602;DHT22;2313;48.552;9.370;2024-01-16T14:29:00;2.80;81.60
4602;DHT22;2313;48.552;9.370;2024-01-16T14:31:27;2.30;84.50
4602;DHT22;2313;48.552;9.370;2024-01-16T14:33:52;2.00;86.20
4602;DHT22;2313;48.552;9.370;2024-01-16T14:36:18;1.70;90.10
4602;DHT22;2313;48.552;9.370;2024-01-16T14:38:45;1.40;90.60
4602;DHT22;2313;48.552;9.370;2024-01-16T14:41:11;1.20;92.60
4602;DHT22;2313;48.552;9.370;2024-01-16T14:43:37;1.00;94.40
4602;DHT22;2313;48.552;9.370;2024-01-16T14:46:03;0.90;95.50
4602;DHT22;2313;48.552;9.370;2024-01-16T14:48:29;0.60;95.80
4602;DHT22;2313;48.552;9.370;2024-01-16T14:50:55;0.50;99.40
4602;DHT22;2313;48.552;9.370;2024-01-16T14:53:21;0.30;99.90
4602;DHT22;2313;48.552;9.370;2024-01-16T14:55:47;0.30;99.90
4602;DHT22;2313;48.552;9.370;2024-01-16T14:58:13;0.10;99.90
4602;DHT22;2313;48.552;9.370;2024-01-16T15:00:39;-0.10;99.90
4602;DHT22;2313;48.552;9.370;2024-01-16T15:03:05;-0.20;99.90
4602;DHT22;2313;48.552;9.370;2024-01-16T15:05:31;-0.30;99.90
4602;DHT22;2313;48.552;9.370;2024-01-16T15:07:57;-0.30;99.90
4602;DHT22;2313;48.552;9.370;2024-01-16T15:10:23;-0.40;99.90
4602;DHT22;2313;48.552;9.370;2024-01-16T15:12:49;-0.50;99.90
4602;DHT22;2313;48.552;9.370;2024-01-16T15:15:15;-0.40;99.90
4602;DHT22;2313;48.552;9.370;2024-01-16T15:17:41;-0.50;99.90
4602;DHT22;2313;48.552;9.370;2024-01-16T15:20:08;-0.50;99.90
4602;DHT22;2313;48.552;9.370;2024-01-16T15:22:41;-0.60;99.90
4602;DHT22;2313;48.552;9.370;2024-01-16T15:25:09;-0.70;99.90
4602;DHT22;2313;48.552;9.370;2024-01-16T15:27:35;-0.80;99.90
4602;DHT22;2313;48.552;9.370;2024-01-16T15:30:03;-0.90;99.90
4602;DHT22;2313;48.552;9.370;2024-01-16T15:32:29;-0.90;99.90
4602;DHT22;2313;48.552;9.370;2024-01-16T15:34:55;-1.10;99.90
4602;DHT22;2313;48.552;9.370;2024-01-16T15:37:20;-1.20;99.90
4602;DHT22;2313;48.552;9.370;2024-01-16T15:39:46;-1.40;99.90
4602;DHT22;2313;48.552;9.370;2024-01-16T15:42:12;-1.40;99.90
4602;DHT22;2313;48.552;9.370;2024-01-16T15:44:38;-1.60;99.90
4602;DHT22;2313;48.552;9.370;2024-01-16T15:47:03;-1.60;99.90
4602;DHT22;2313;48.552;9.370;2024-01-16T15:49:30;-1.60;99.90
4602;DHT22;2313;48.552;9.370;2024-01-16T15:52:01;-1.70;99.90
4602;DHT22;2313;48.552;9.370;2024-01-16T15:54:29;-1.80;99.90
4602;DHT22;2313;48.552;9.370;2024-01-16T15:56:58;-1.80;99.90
4602;DHT22;2313;48.552;9.370;2024-01-16T15:59:24;-1.90;99.90
4602;DHT22;2313;48.552;9.370;2024-01-16T16:01:51;-1.90;99.90
4602;DHT22;2313;48.552;9.370;2024-01-16T16:04:16;-2.10;99.90
4602;DHT22;2313;48.552;9.370;2024-01-16T16:06:42;-2.20;99.90
4602;DHT22;2313;48.552;9.370;2024-01-16T16:09:08;-2.30;99.90
4602;DHT22;2313;48.552;9.370;2024-01-16T16:11:40;-2.30;99.90
4602;DHT22;2313;48.552;9.370;2024-01-16T16:14:13;-2.30;99.90
4602;DHT22;2313;48.552;9.370;2024-01-16T16:16:42;-2.30;99.90